Weather History for PADK - March, 2013

Change the Weather History Date:

Tuesday, March 26, 2013

  Actual Average Record
Temperature  
Mean Temperature 37 °F -  
Max Temperature 41 °F 38 °F 44 °F (1969)
Min Temperature 33 °F 30 °F 19 °F (2009)
Degree Days  
Heating Degree Days 28    
Moisture  
Dew Point 34 °F    
Average Humidity 88    
Maximum Humidity 93    
Minimum Humidity 75    
Precipitation  
Precipitation 0.16 in - - ()
Sea Level Pressure  
Sea Level Pressure 29.48 in    
Wind  
Wind Speed 10 mph (SSW)    
Max Wind Speed 31 mph    
Max Gust Speed 38 mph    
Visibility 8 miles    
Events      
Averages and records for this station are not official NWS values.
T = Trace of Precipitation, MM = Missing Value Source: NWS Daily Summary

Daily Weather History Graph

Daily Weather History Graph

Search for Another Location

Airport or City:

Trip Planner

Search our weather history database for the weather conditions in past years. The results will help you decide how hot, cold, wet, or windy it might be!

Date:

Astronomy

Mar. 26, 2013 Rise Set
Actual Time 8:34 AM HDT 9:11 PM HDT
Civil Twilight 8:00 AM HDT 9:44 PM HDT
Nautical Twilight 7:19 AM HDT 10:25 PM HDT
Astronomical Twilight 6:37 AM HDT 11:08 PM HDT
Moon 9:08 PM HDT (3/26) 7:59 AM HDT (3/26)
Length of Visible Light 13h 44m
Length of Day
12h 36m
Full, 100% of the Moon is Illuminated
Mar 26
Full
Mar 27
Full
Apr 2
Last Quarter
Apr 10
New
Apr 18
First Quarter

Hourly Weather History & Observations

Time (HDT) Temp. Windchill Dew Point Humidity Pressure Visibility Wind Dir Wind Speed Gust Speed Precip Events Conditions
12:16 AM 35.6 °F - 33.8 °F 93% 29.73 in 10.0 mi Calm Calm - N/A   Overcast
12:36 AM 35.6 °F - 33.8 °F 93% 29.73 in 10.0 mi Calm Calm - N/A   Overcast
12:56 AM 37.4 °F - 35.6 °F 93% 29.72 in 10.0 mi Calm Calm - N/A   Overcast
1:16 AM 35.6 °F - 33.8 °F 93% 29.73 in 10.0 mi Calm Calm - 0.01 in   Overcast
1:36 AM 35.6 °F - 33.8 °F 93% 29.73 in 10.0 mi Calm Calm - 0.01 in   Overcast
1:56 AM 35.6 °F 32.8 °F 33.8 °F 93% 29.72 in 10.0 mi SSW 3.5 mph - 0.02 in   Overcast
2:16 AM 35.6 °F 31.7 °F 33.8 °F 93% 29.74 in 10.0 mi SSW 4.6 mph - 0.01 in   Overcast
2:36 AM 35.6 °F 31.7 °F 33.8 °F 93% 29.73 in 10.0 mi South 4.6 mph - 0.04 in   Overcast
2:56 AM 35.6 °F 29.2 °F 33.8 °F 93% 29.73 in 10.0 mi South 8.1 mph - 0.04 in   Overcast
3:16 AM 35.6 °F 30.7 °F 32.0 °F 87% 29.72 in 10.0 mi South 5.8 mph - N/A   Overcast
3:36 AM 35.6 °F 29.2 °F 33.8 °F 93% 29.72 in 10.0 mi South 8.1 mph - 0.03 in   Overcast
3:56 AM 35.6 °F 30.7 °F 33.8 °F 93% 29.71 in 10.0 mi SSE 5.8 mph - 0.04 in   Overcast
4:16 AM 35.6 °F 28.0 °F 33.8 °F 93% 29.69 in 10.0 mi SSE 10.4 mph - N/A   Overcast
4:36 AM 35.6 °F 28.0 °F 33.8 °F 93% 29.69 in 10.0 mi South 10.4 mph - N/A   Overcast
4:56 AM 35.6 °F 28.0 °F 32.0 °F 87% 29.68 in 10.0 mi South 10.4 mph - N/A   Overcast
5:16 AM 35.6 °F 27.1 °F 33.8 °F 93% 29.67 in 10.0 mi South 12.7 mph - N/A   Overcast
5:36 AM 35.6 °F 28.0 °F 33.8 °F 93% 29.67 in 10.0 mi SSE 10.4 mph - 0.01 in   Overcast
5:56 AM 35.6 °F 30.7 °F 33.8 °F 93% 29.65 in 10.0 mi SSE 5.8 mph - 0.01 in   Overcast
6:16 AM 35.6 °F 28.6 °F 32.0 °F 87% 29.64 in 10.0 mi SSE 9.2 mph - 0.01 in   Mostly Cloudy
6:36 AM 35.6 °F 30.7 °F 32.0 °F 87% 29.64 in 10.0 mi SSW 5.8 mph - 0.08 in   Overcast
6:56 AM 35.6 °F 30.7 °F 33.8 °F 93% 29.64 in 10.0 mi South 5.8 mph - 0.08 in   Overcast
7:16 AM 35.6 °F 26.6 °F 33.8 °F 93% 29.62 in 10.0 mi South 13.8 mph - N/A   Overcast
7:36 AM 35.6 °F 28.6 °F 33.8 °F 93% 29.61 in 10.0 mi South 9.2 mph - 0.01 in   Overcast
7:56 AM 35.6 °F 26.6 °F 33.8 °F 93% 29.59 in 9.0 mi SSE 13.8 mph - 0.02 in   Overcast
8:16 AM 35.6 °F 27.1 °F 33.8 °F 93% 29.59 in 10.0 mi SSE 12.7 mph - N/A   Overcast
8:36 AM 35.6 °F 27.5 °F 33.8 °F 93% 29.59 in 10.0 mi SSE 11.5 mph - N/A   Overcast
8:56 AM 35.6 °F 25.9 °F 33.8 °F 93% 29.57 in 10.0 mi SSE 16.1 mph 20.7 mph N/A   Overcast
9:16 AM 35.6 °F 25.5 °F 32.0 °F 87% 29.56 in 10.0 mi SSE 17.3 mph - N/A   Overcast
9:36 AM 35.6 °F 27.5 °F 32.0 °F 87% 29.55 in 9.0 mi South 11.5 mph - N/A   Mostly Cloudy
9:56 AM 35.6 °F 26.6 °F 32.0 °F 87% 29.54 in 9.0 mi SSE 13.8 mph - N/A   Overcast
10:16 AM 35.6 °F 26.6 °F 32.0 °F 87% 29.53 in 7.0 mi South 13.8 mph - N/A   Overcast
10:36 AM 35.6 °F 25.9 °F 32.0 °F 87% 29.52 in 7.0 mi SSE 16.1 mph - N/A   Overcast
10:56 AM 33.8 °F 23.9 °F 30.2 °F 87% 29.51 in 3.0 mi South 15.0 mph - N/A   Overcast
12:16 PM 33.8 °F 23.5 °F 30.2 °F 87% 29.45 in 2.5 mi SE 16.1 mph - N/A   Overcast
12:36 PM 33.8 °F 23.5 °F 32.0 °F 93% 29.42 in 5.0 mi SE 16.1 mph 24.2 mph N/A   Overcast
12:56 PM 35.6 °F 23.4 °F 32.0 °F 87% 29.40 in 4.0 mi SE 25.3 mph 31.1 mph N/A   Overcast
1:16 PM 35.6 °F 23.4 °F 33.8 °F 93% 29.39 in 8.0 mi SE 25.3 mph 29.9 mph N/A   Overcast
1:36 PM 37.4 °F 27.2 °F 33.8 °F 87% 29.37 in 8.0 mi SSE 19.6 mph 29.9 mph N/A   Overcast
1:56 PM 37.4 °F 26.9 °F 33.8 °F 87% 29.35 in 5.0 mi SSE 20.7 mph 31.1 mph N/A   Overcast
2:16 PM 37.4 °F 30.3 °F 33.8 °F 87% 29.34 in 5.0 mi SSE 10.4 mph - N/A   Overcast
2:36 PM 37.4 °F - 33.8 °F 87% 29.33 in 5.0 mi Calm Calm - N/A   Overcast
2:56 PM 37.4 °F 31.4 °F 33.8 °F 87% 29.31 in 5.0 mi South 8.1 mph - N/A   Overcast
3:16 PM 39.2 °F 30.5 °F 35.6 °F 87% 29.29 in 10.0 mi SE 16.1 mph 21.9 mph N/A   Overcast
3:36 PM 39.2 °F 29.0 °F 37.4 °F 93% 29.27 in 8.0 mi South 21.9 mph 26.5 mph N/A   Overcast
3:56 PM 41.0 °F 33.1 °F 37.4 °F 87% 29.26 in 7.0 mi South 15.0 mph 20.7 mph N/A   Overcast
4:16 PM 41.0 °F 33.1 °F 37.4 °F 87% 29.26 in 10.0 mi South 15.0 mph - N/A   Overcast
4:36 PM 41.0 °F 31.6 °F 37.4 °F 87% 29.26 in 3.0 mi WSW 20.7 mph 29.9 mph N/A   Overcast
4:56 PM 39.2 °F 27.6 °F 37.4 °F 93% 29.26 in 2.5 mi WSW 28.8 mph 32.2 mph N/A   Overcast
5:16 PM 39.2 °F 27.8 °F 37.4 °F 93% 29.27 in 3.0 mi SW 27.6 mph 36.8 mph N/A   Overcast
5:36 PM 39.2 °F 28.3 °F 37.4 °F 93% 29.27 in 3.0 mi WSW 25.3 mph 38.0 mph N/A   Overcast
5:56 PM 39.2 °F 27.8 °F 37.4 °F 93% 29.27 in 6.0 mi WSW 27.6 mph 34.5 mph N/A   Overcast
6:16 PM 39.2 °F 27.2 °F 35.6 °F 87% 29.27 in 4.0 mi WSW 31.1 mph 38.0 mph N/A   Overcast
6:36 PM 39.2 °F 28.0 °F 35.6 °F 87% 29.28 in 2.5 mi WSW 26.5 mph 34.5 mph N/A   Overcast
6:56 PM 39.2 °F 28.0 °F 35.6 °F 87% 29.28 in 9.0 mi WSW 26.5 mph 29.9 mph N/A   Overcast
7:16 PM 39.2 °F 28.3 °F 35.6 °F 87% 29.29 in 10.0 mi WSW 25.3 mph 31.1 mph N/A   Overcast
7:36 PM 39.2 °F 28.7 °F 35.6 °F 87% 29.30 in 10.0 mi WSW 23.0 mph 31.1 mph N/A   Overcast
7:56 PM 39.2 °F 28.3 °F 33.8 °F 81% 29.31 in 10.0 mi WSW 25.3 mph 33.4 mph N/A   Overcast
8:16 PM 39.2 °F 29.3 °F 33.8 °F 81% 29.31 in 10.0 mi SW 20.7 mph 32.2 mph N/A   Overcast
8:36 PM 37.4 °F 25.9 °F 33.8 °F 87% 29.31 in 10.0 mi SW 25.3 mph 32.2 mph N/A   Mostly Cloudy
8:56 PM 37.4 °F 26.1 °F 33.8 °F 87% 29.32 in 10.0 mi WSW 24.2 mph 32.2 mph N/A   Mostly Cloudy
9:16 PM 37.4 °F 27.5 °F 33.8 °F 87% 29.33 in 10.0 mi WSW 18.4 mph 29.9 mph N/A   Overcast
9:36 PM 37.4 °F 26.9 °F 33.8 °F 87% 29.33 in 10.0 mi WSW 20.7 mph 26.5 mph N/A   Overcast
9:56 PM 37.4 °F 25.9 °F 32.0 °F 81% 29.34 in 10.0 mi SW 25.3 mph 29.9 mph N/A   Overcast
10:16 PM 37.4 °F 25.9 °F 30.2 °F 75% 29.35 in 10.0 mi WSW 25.3 mph 34.5 mph N/A   Overcast
10:36 PM 37.4 °F 26.9 °F 30.2 °F 75% 29.36 in 10.0 mi SW 20.7 mph 32.2 mph N/A   Overcast
10:56 PM 35.6 °F 24.0 °F 30.2 °F 81% 29.35 in 10.0 mi WSW 23.0 mph 28.8 mph N/A   Mostly Cloudy
11:16 PM 35.6 °F 24.5 °F 30.2 °F 81% 29.36 in 10.0 mi SW 20.7 mph 25.3 mph N/A   Mostly Cloudy
11:36 PM 37.4 °F 27.8 °F 30.2 °F 75% 29.36 in 10.0 mi SW 17.3 mph 24.2 mph N/A   Overcast
11:56 PM 37.4 °F 26.9 °F 30.2 °F 75% 29.36 in 10.0 mi SW 20.7 mph 27.6 mph N/A   Overcast